createdAt,value
2022-08-30T00:00:57.307Z,15.06
2022-08-30T00:01:57.348Z,15.03
2022-08-30T00:02:57.365Z,15.02
2022-08-30T00:03:57.330Z,14.99
2022-08-30T00:04:57.257Z,14.94
2022-08-30T00:05:57.259Z,14.91
2022-08-30T00:06:57.230Z,14.88
2022-08-30T00:07:57.257Z,14.86
2022-08-30T00:08:57.226Z,14.88
2022-08-30T00:09:57.197Z,14.85
2022-08-30T00:10:57.213Z,14.86
2022-08-30T00:11:57.178Z,14.85
2022-08-30T00:12:57.168Z,14.86
2022-08-30T00:13:57.206Z,14.86
2022-08-30T00:14:57.138Z,14.86
2022-08-30T00:15:57.211Z,14.84
2022-08-30T00:16:57.158Z,14.84
2022-08-30T00:17:57.116Z,14.82
2022-08-30T00:18:57.098Z,14.82
2022-08-30T00:19:57.087Z,14.78
2022-08-30T00:20:57.078Z,14.77
2022-08-30T00:21:57.078Z,14.73
2022-08-30T00:22:57.052Z,14.69
2022-08-30T00:23:57.045Z,14.68
2022-08-30T00:24:57.033Z,14.69
2022-08-30T00:25:57.009Z,14.68
2022-08-30T00:26:57.011Z,14.66
2022-08-30T00:27:57.022Z,14.65
2022-08-30T00:28:56.990Z,14.63
2022-08-30T00:29:56.968Z,14.63
2022-08-30T00:30:57.000Z,14.60
2022-08-30T00:31:56.956Z,14.59
2022-08-30T00:32:56.939Z,14.59
2022-08-30T00:33:56.959Z,14.62
2022-08-30T00:34:56.909Z,14.62
2022-08-30T00:35:56.899Z,14.65
2022-08-30T00:36:56.889Z,14.63
2022-08-30T00:37:56.869Z,14.63
2022-08-30T00:38:56.870Z,14.62
2022-08-30T00:39:56.892Z,14.65
2022-08-30T00:40:56.855Z,14.66
2022-08-30T00:41:56.829Z,14.66
2022-08-30T00:42:59.635Z,14.63
2022-08-30T00:43:56.810Z,14.60
2022-08-30T00:44:56.860Z,14.59
2022-08-30T00:45:56.826Z,14.55
2022-08-30T00:46:56.778Z,14.54
2022-08-30T00:47:56.760Z,14.54
2022-08-30T00:48:56.750Z,14.53
2022-08-30T00:49:56.740Z,14.48
2022-08-30T00:50:56.762Z,14.45
2022-08-30T00:51:56.710Z,14.41
2022-08-30T00:52:56.710Z,14.37
2022-08-30T00:53:56.801Z,14.45
2022-08-30T00:54:56.680Z,14.48
2022-08-30T00:55:56.670Z,14.53
2022-08-30T00:56:56.680Z,14.51
2022-08-30T00:57:56.640Z,14.48
2022-08-30T00:58:56.640Z,14.47
2022-08-30T00:59:56.631Z,14.43
2022-08-30T01:00:56.613Z,14.40
2022-08-30T01:01:56.643Z,14.41
2022-08-30T01:02:56.628Z,14.41
2022-08-30T01:03:56.580Z,14.41
2022-08-30T01:04:56.571Z,14.43
2022-08-30T01:05:56.562Z,14.41
2022-08-30T01:06:56.542Z,14.43
2022-08-30T01:07:56.561Z,14.43
2022-08-30T01:08:56.521Z,14.43
2022-08-30T01:09:56.509Z,14.43
2022-08-30T01:10:56.501Z,14.36
2022-08-30T01:11:56.491Z,14.33
2022-08-30T01:12:56.479Z,14.30
2022-08-30T01:13:56.491Z,14.30
2022-08-30T01:14:56.462Z,14.30
2022-08-30T01:15:56.506Z,14.28
2022-08-30T01:16:56.441Z,14.26
2022-08-30T01:17:56.413Z,14.28
2022-08-30T01:18:56.412Z,14.28
2022-08-30T01:19:56.412Z,14.26
2022-08-30T01:20:56.390Z,14.20
2022-08-30T01:21:56.392Z,14.18
2022-08-30T01:22:56.367Z,14.20
2022-08-30T01:23:56.353Z,14.23
2022-08-30T01:24:56.343Z,14.25
2022-08-30T01:25:56.344Z,14.25
2022-08-30T01:26:56.313Z,14.26
2022-08-30T01:27:56.306Z,14.30
2022-08-30T01:28:56.304Z,14.41
2022-08-30T01:29:56.286Z,14.45
2022-08-30T01:30:56.331Z,14.44
2022-08-30T01:31:56.282Z,14.41
2022-08-30T01:32:56.252Z,14.40
2022-08-30T01:33:56.246Z,14.40
2022-08-30T01:34:56.223Z,14.41
2022-08-30T01:35:56.214Z,14.45
2022-08-30T01:36:56.223Z,14.44
2022-08-30T01:37:56.183Z,14.41
2022-08-30T01:38:56.193Z,14.37
2022-08-30T01:39:56.328Z,14.33
2022-08-30T01:40:56.153Z,14.30
2022-08-30T01:41:56.315Z,14.25
2022-08-30T01:42:56.181Z,14.25
2022-08-30T01:43:56.126Z,14.20
2022-08-30T01:44:56.123Z,14.15
2022-08-30T01:45:56.226Z,14.11
2022-08-30T01:46:56.094Z,14.10
2022-08-30T01:47:56.083Z,14.08
2022-08-30T01:48:56.125Z,14.08
2022-08-30T01:49:56.056Z,14.07
2022-08-30T01:50:56.043Z,14.05
2022-08-30T01:52:01.083Z,14.05
2022-08-30T01:52:57.033Z,14.05
2022-08-30T01:53:56.006Z,14.07
2022-08-30T01:54:56.027Z,14.07
2022-08-30T01:55:55.992Z,14.05
2022-08-30T01:56:55.974Z,14.07
2022-08-30T01:57:55.964Z,14.04
2022-08-30T01:59:00.400Z,14.03
2022-08-30T01:59:56.965Z,14.00
2022-08-30T02:00:55.986Z,13.99
2022-08-30T02:01:55.915Z,13.96
2022-08-30T02:02:55.904Z,13.92
2022-08-30T02:03:55.940Z,13.87
2022-08-30T02:04:55.887Z,13.85
2022-08-30T02:05:55.910Z,13.85
2022-08-30T02:06:55.867Z,13.85
2022-08-30T02:07:55.848Z,13.85
2022-08-30T02:08:55.845Z,13.81
2022-08-30T02:09:55.826Z,13.79
2022-08-30T02:10:55.815Z,13.83
2022-08-30T02:11:55.823Z,13.87
2022-08-30T02:12:55.795Z,13.92
2022-08-30T02:13:55.784Z,13.93
2022-08-30T02:14:55.775Z,13.93
2022-08-30T02:15:55.756Z,13.90
2022-08-30T02:16:55.883Z,13.87
2022-08-30T02:17:55.736Z,13.85
2022-08-30T02:18:55.725Z,13.78
2022-08-30T02:19:55.707Z,13.72
2022-08-30T02:20:55.708Z,13.70
2022-08-30T02:21:55.695Z,13.68
2022-08-30T02:22:58.532Z,13.67
2022-08-30T02:23:56.665Z,13.65
2022-08-30T02:24:55.665Z,13.68
2022-08-30T02:25:55.645Z,13.67
2022-08-30T02:26:55.637Z,13.65
2022-08-30T02:27:55.617Z,13.63
2022-08-30T02:28:55.627Z,13.63
2022-08-30T02:29:55.597Z,13.63
2022-08-30T02:30:55.661Z,13.60
2022-08-30T02:31:55.580Z,13.60
2022-08-30T02:32:55.566Z,13.62
2022-08-30T02:33:55.577Z,13.62
2022-08-30T02:34:55.536Z,13.63
2022-08-30T02:35:55.535Z,13.65
2022-08-30T02:36:55.517Z,13.65
2022-08-30T02:37:55.508Z,13.67
2022-08-30T02:38:55.494Z,13.63
2022-08-30T02:39:55.517Z,13.65
2022-08-30T02:40:55.477Z,13.67
2022-08-30T02:41:55.466Z,13.67
2022-08-30T02:42:55.452Z,13.70
2022-08-30T02:43:55.438Z,13.74
2022-08-30T02:44:55.426Z,13.77
2022-08-30T02:45:55.458Z,13.75
2022-08-30T02:46:55.396Z,13.78
2022-08-30T02:47:55.406Z,13.81
2022-08-30T02:48:55.376Z,13.81
2022-08-30T02:49:55.367Z,13.78
2022-08-30T02:50:55.397Z,13.77
2022-08-30T02:51:55.348Z,13.75
2022-08-30T02:52:55.520Z,13.74
2022-08-30T02:53:55.326Z,13.71
2022-08-30T02:54:55.367Z,13.71
2022-08-30T02:55:55.310Z,13.68
2022-08-30T02:56:55.311Z,13.68
2022-08-30T02:57:55.279Z,13.70
2022-08-30T02:58:55.265Z,13.71
2022-08-30T02:59:55.256Z,13.71
2022-08-30T03:00:55.288Z,13.71
2022-08-30T03:01:55.236Z,13.71
2022-08-30T03:02:55.278Z,13.71
2022-08-30T03:03:55.272Z,13.68
2022-08-30T03:04:55.198Z,13.67
2022-08-30T03:05:55.189Z,13.63
2022-08-30T03:06:55.189Z,13.62
2022-08-30T03:07:55.168Z,13.62
2022-08-30T03:08:55.168Z,13.65
2022-08-30T03:09:55.140Z,13.67
2022-08-30T03:10:55.128Z,13.71
2022-08-30T03:11:55.118Z,13.74
2022-08-30T03:12:55.107Z,13.75
2022-08-30T03:13:55.095Z,13.74
2022-08-30T03:14:55.107Z,13.71
2022-08-30T03:15:55.079Z,13.71
2022-08-30T03:16:55.110Z,13.67
2022-08-30T03:17:55.049Z,13.63
2022-08-30T03:18:55.043Z,13.62
2022-08-30T03:19:55.028Z,13.60
2022-08-30T03:20:55.166Z,13.59
2022-08-30T03:21:55.008Z,13.59
2022-08-30T03:22:54.990Z,13.60
2022-08-30T03:23:54.978Z,13.63
2022-08-30T03:24:54.960Z,13.71
2022-08-30T03:25:54.979Z,13.71
2022-08-30T03:26:54.940Z,13.77
2022-08-30T03:27:54.948Z,13.78
2022-08-30T03:28:54.919Z,13.79
2022-08-30T03:29:54.910Z,13.81
2022-08-30T03:30:54.900Z,13.86
2022-08-30T03:31:54.932Z,13.87
2022-08-30T03:32:54.880Z,13.89
2022-08-30T03:33:54.861Z,13.90
2022-08-30T03:34:54.850Z,13.90
2022-08-30T03:35:54.848Z,13.92
2022-08-30T03:36:54.851Z,13.92
2022-08-30T03:37:56.424Z,13.93
2022-08-30T03:38:54.809Z,13.93
2022-08-30T03:39:54.798Z,13.95
2022-08-30T03:40:54.795Z,13.96
2022-08-30T03:41:54.770Z,13.96
2022-08-30T03:42:54.759Z,13.99
2022-08-30T03:43:59.823Z,13.99
2022-08-30T03:44:55.732Z,14.04
2022-08-30T03:45:54.794Z,14.07
2022-08-30T03:46:54.709Z,14.10
2022-08-30T03:47:54.708Z,14.15
2022-08-30T03:48:54.690Z,14.20
2022-08-30T03:49:54.711Z,14.26
2022-08-30T03:50:54.669Z,14.28
2022-08-30T03:51:54.659Z,14.29
2022-08-30T03:52:54.649Z,14.35
2022-08-30T03:53:54.690Z,14.37
2022-08-30T03:54:54.628Z,14.44
2022-08-30T03:55:54.876Z,14.45
2022-08-30T03:56:54.602Z,14.48
2022-08-30T03:57:54.591Z,14.44
2022-08-30T03:58:54.571Z,14.45
2022-08-30T03:59:54.560Z,14.45
2022-08-30T04:00:54.606Z,14.48
2022-08-30T04:01:54.609Z,14.48
2022-08-30T04:02:54.531Z,14.48
2022-08-30T04:03:54.521Z,14.50
2022-08-30T04:04:54.510Z,14.48
2022-08-30T04:05:54.500Z,14.53
2022-08-30T04:06:54.511Z,14.58
2022-08-30T04:07:54.471Z,14.60
2022-08-30T04:08:54.462Z,14.62
2022-08-30T04:09:54.452Z,14.65
2022-08-30T04:10:54.440Z,14.65
2022-08-30T04:11:54.431Z,14.63
2022-08-30T04:12:54.651Z,14.65
2022-08-30T04:13:54.409Z,14.65
2022-08-30T04:14:54.392Z,14.63
2022-08-30T04:15:54.382Z,14.62
2022-08-30T04:16:54.394Z,14.62
2022-08-30T04:17:54.391Z,14.60
2022-08-30T04:18:54.352Z,14.60
2022-08-30T04:19:54.341Z,14.59
2022-08-30T04:20:54.325Z,14.59
2022-08-30T04:21:54.321Z,14.59
2022-08-30T04:22:54.300Z,14.60
2022-08-30T04:23:54.310Z,14.62
2022-08-30T04:24:54.282Z,14.60
2022-08-30T04:25:54.272Z,14.60
2022-08-30T04:26:54.252Z,14.62
2022-08-30T04:27:54.244Z,14.62
2022-08-30T04:28:54.252Z,14.60
2022-08-30T04:29:54.221Z,14.59
2022-08-30T04:30:54.232Z,14.60
2022-08-30T04:31:54.238Z,14.59
2022-08-30T04:32:58.478Z,14.59
2022-08-30T04:33:54.182Z,14.58
2022-08-30T04:34:54.192Z,14.59
2022-08-30T04:35:54.153Z,14.58
2022-08-30T04:36:54.143Z,14.58
2022-08-30T04:37:54.132Z,14.59
2022-08-30T04:38:54.124Z,14.60
2022-08-30T04:39:54.133Z,14.60
2022-08-30T04:40:54.101Z,14.59
2022-08-30T04:41:54.094Z,14.60
2022-08-30T04:42:54.077Z,14.59
2022-08-30T04:43:54.063Z,14.59
2022-08-30T04:44:54.055Z,14.59
2022-08-30T04:45:54.152Z,14.59
2022-08-30T04:46:54.033Z,14.58
2022-08-30T04:47:54.023Z,14.59
2022-08-30T04:48:54.005Z,14.59
2022-08-30T04:49:53.993Z,14.59
2022-08-30T04:50:54.013Z,14.59
2022-08-30T04:51:53.978Z,14.59
2022-08-30T04:52:53.954Z,14.60
2022-08-30T04:53:53.953Z,14.60
2022-08-30T04:54:53.936Z,14.63
2022-08-30T04:55:53.924Z,14.63
2022-08-30T04:56:54.442Z,14.62
2022-08-30T04:57:53.904Z,14.62
2022-08-30T04:58:53.897Z,14.60
2022-08-30T04:59:53.884Z,14.62
2022-08-30T05:00:53.911Z,14.63
2022-08-30T05:01:53.932Z,14.65
2022-08-30T05:02:53.872Z,14.69
2022-08-30T05:03:53.834Z,14.77
2022-08-30T05:04:53.825Z,14.79
2022-08-30T05:05:53.816Z,14.81
2022-08-30T05:06:53.805Z,14.82
2022-08-30T05:07:53.792Z,14.85
2022-08-30T05:08:53.795Z,14.86
2022-08-30T05:09:53.767Z,14.86
2022-08-30T05:10:53.755Z,14.86
2022-08-30T05:11:53.753Z,14.85
2022-08-30T05:12:53.728Z,14.86
2022-08-30T05:13:53.724Z,14.88
2022-08-30T05:14:53.724Z,14.89
2022-08-30T05:15:54.250Z,14.89
2022-08-30T05:16:53.685Z,14.89
2022-08-30T05:17:53.675Z,14.89
2022-08-30T05:18:53.665Z,14.96
2022-08-30T05:19:53.685Z,14.96
2022-08-30T05:20:53.635Z,14.97
2022-08-30T05:21:53.633Z,15.00
2022-08-30T05:22:54.202Z,15.02
2022-08-30T05:23:53.614Z,15.04
2022-08-30T05:24:53.597Z,15.06
2022-08-30T05:25:53.607Z,15.07
2022-08-30T05:26:53.580Z,15.09
2022-08-30T05:27:53.567Z,15.11
2022-08-30T05:28:53.567Z,15.14
2022-08-30T05:29:53.536Z,15.18
2022-08-30T05:30:53.526Z,15.21
2022-08-30T05:31:53.620Z,15.24
2022-08-30T05:32:53.506Z,15.25
2022-08-30T05:33:53.498Z,15.31
2022-08-30T05:34:53.477Z,15.33
2022-08-30T05:35:53.477Z,15.36
2022-08-30T05:36:53.466Z,15.39
2022-08-30T05:37:53.466Z,15.43
2022-08-30T05:39:00.516Z,15.47
2022-08-30T05:39:53.427Z,15.54
2022-08-30T05:40:53.407Z,15.58
2022-08-30T05:41:53.408Z,15.61
2022-08-30T05:42:53.388Z,15.64
2022-08-30T05:43:53.407Z,15.65
2022-08-30T05:44:53.366Z,15.70
2022-08-30T05:45:53.357Z,15.73
2022-08-30T05:46:53.338Z,15.77
2022-08-30T05:47:53.327Z,15.80
2022-08-30T05:48:53.317Z,15.82
2022-08-30T05:49:53.327Z,15.88
2022-08-30T05:50:53.298Z,15.91
2022-08-30T05:51:53.288Z,15.92
2022-08-30T05:52:53.283Z,15.94
2022-08-30T05:53:53.268Z,15.95
2022-08-30T05:54:53.249Z,15.98
2022-08-30T05:55:53.258Z,16.04
2022-08-30T05:56:53.228Z,16.04
2022-08-30T05:57:53.220Z,16.08
2022-08-30T05:58:53.208Z,16.13
2022-08-30T05:59:53.201Z,16.15
2022-08-30T06:00:53.206Z,16.21
2022-08-30T06:01:53.246Z,16.26
2022-08-30T06:02:53.184Z,16.32
2022-08-30T06:03:53.156Z,16.36
2022-08-30T06:04:53.138Z,16.43
2022-08-30T06:05:53.131Z,16.51
2022-08-30T06:06:53.139Z,16.56
2022-08-30T06:07:53.100Z,16.58
2022-08-30T06:08:53.089Z,16.65
2022-08-30T06:09:53.079Z,16.75
2022-08-30T06:10:53.068Z,16.81
2022-08-30T06:11:53.059Z,16.89
2022-08-30T06:12:53.063Z,16.96
2022-08-30T06:13:53.039Z,17.04
2022-08-30T06:14:53.557Z,17.15
2022-08-30T06:15:53.063Z,17.26
2022-08-30T06:16:52.999Z,17.41
2022-08-30T06:17:53.009Z,17.49
2022-08-30T06:18:52.970Z,17.60
2022-08-30T06:19:52.960Z,17.71
2022-08-30T06:20:52.951Z,17.87
2022-08-30T06:21:52.944Z,18.04
2022-08-30T06:22:52.931Z,18.28
2022-08-30T06:23:52.941Z,18.34
2022-08-30T06:24:57.563Z,18.41
2022-08-30T06:25:53.904Z,18.65
2022-08-30T06:26:52.882Z,18.96
2022-08-30T06:27:56.023Z,19.45
2022-08-30T06:28:52.863Z,19.88
2022-08-30T06:29:52.871Z,20.47
2022-08-30T06:30:52.893Z,21.12
2022-08-30T06:31:52.830Z,21.64
2022-08-30T06:32:52.821Z,22.02
2022-08-30T06:33:52.802Z,22.51
2022-08-30T06:34:52.813Z,23.08
2022-08-30T06:35:58.794Z,23.24
2022-08-30T06:36:53.771Z,23.62
2022-08-30T06:37:52.764Z,23.84
2022-08-30T06:38:52.742Z,23.86
2022-08-30T06:39:52.733Z,23.86
2022-08-30T06:40:52.761Z,24.11
2022-08-30T06:41:52.720Z,24.50
2022-08-30T06:42:52.704Z,25.08
2022-08-30T06:43:52.692Z,25.53
2022-08-30T06:44:52.683Z,25.44
2022-08-30T06:45:52.666Z,25.50
2022-08-30T06:46:52.706Z,25.26
2022-08-30T06:47:52.696Z,25.22
2022-08-30T06:48:52.636Z,25.33
2022-08-30T06:49:52.625Z,24.76
2022-08-30T06:50:52.616Z,24.47
2022-08-30T06:51:52.626Z,24.85
2022-08-30T06:52:52.595Z,24.73
2022-08-30T06:53:52.576Z,24.76
2022-08-30T06:54:52.566Z,24.70
2022-08-30T06:55:52.557Z,24.98
2022-08-30T06:56:58.643Z,25.16
2022-08-30T06:57:53.558Z,25.17
2022-08-30T06:58:52.526Z,25.29
2022-08-30T06:59:57.040Z,25.06
2022-08-30T07:00:52.505Z,25.28
2022-08-30T07:01:52.537Z,25.07
2022-08-30T07:02:52.549Z,24.84
2022-08-30T07:03:52.483Z,24.69
2022-08-30T07:04:52.459Z,24.76
2022-08-30T07:05:52.446Z,24.69
2022-08-30T07:06:52.438Z,24.08
2022-08-30T07:07:52.419Z,23.63
2022-08-30T07:08:56.138Z,23.59
2022-08-30T07:09:52.406Z,23.69
2022-08-30T07:10:52.390Z,24.30
2022-08-30T07:11:52.384Z,24.58
2022-08-30T07:12:52.371Z,24.60
2022-08-30T07:13:52.367Z,24.77
2022-08-30T07:14:52.372Z,25.13
2022-08-30T07:15:52.389Z,25.35
2022-08-30T07:16:52.363Z,24.81
2022-08-30T07:17:52.312Z,24.95
2022-08-30T07:18:52.304Z,25.07
2022-08-30T07:19:52.290Z,25.72
2022-08-30T07:20:52.304Z,25.91
2022-08-30T07:21:52.272Z,25.69
2022-08-30T07:22:52.254Z,25.78
2022-08-30T07:23:53.569Z,26.37
2022-08-30T07:24:52.244Z,26.73
2022-08-30T07:25:52.223Z,26.25
2022-08-30T07:26:52.551Z,25.99
2022-08-30T07:27:52.204Z,25.98
2022-08-30T07:28:52.337Z,25.50
2022-08-30T07:29:52.185Z,25.38
2022-08-30T07:30:52.178Z,25.04
2022-08-30T07:31:52.158Z,25.04
2022-08-30T07:32:52.175Z,24.60
2022-08-30T07:33:52.150Z,24.30
2022-08-30T07:34:52.127Z,24.51
2022-08-30T07:35:52.108Z,24.93
2022-08-30T07:36:52.105Z,25.06
2022-08-30T07:37:52.090Z,25.25
2022-08-30T07:38:52.097Z,25.16
2022-08-30T07:39:52.088Z,25.13
2022-08-30T07:40:52.067Z,25.03
2022-08-30T07:41:52.051Z,25.22
2022-08-30T07:42:52.038Z,25.70
2022-08-30T07:43:52.071Z,26.13
2022-08-30T07:44:56.478Z,26.44
2022-08-30T07:45:52.002Z,26.70
2022-08-30T07:46:52.097Z,26.25
2022-08-30T07:47:51.978Z,25.70
2022-08-30T07:48:51.970Z,25.60
2022-08-30T07:49:51.971Z,25.44
2022-08-30T07:50:56.368Z,25.08
2022-08-30T07:51:52.933Z,24.68
2022-08-30T07:52:51.961Z,24.50
2022-08-30T07:53:51.912Z,24.33
2022-08-30T07:54:52.896Z,24.29
2022-08-30T07:55:51.911Z,25.01
2022-08-30T07:56:51.892Z,25.13
2022-08-30T07:57:51.929Z,24.86
2022-08-30T07:58:51.863Z,24.73
2022-08-30T07:59:51.844Z,24.53
2022-08-30T08:00:51.862Z,24.74
2022-08-30T08:01:51.998Z,24.80
2022-08-30T08:02:51.840Z,24.47
2022-08-30T08:03:51.812Z,24.20
2022-08-30T08:04:51.793Z,23.84
2022-08-30T08:05:51.776Z,23.74
2022-08-30T08:06:51.792Z,23.77
2022-08-30T08:07:51.754Z,23.81
2022-08-30T08:08:51.748Z,23.88
2022-08-30T08:09:51.735Z,24.26
2022-08-30T08:10:51.725Z,24.85
2022-08-30T08:11:51.706Z,24.77
2022-08-30T08:12:52.238Z,24.45
2022-08-30T08:13:53.261Z,24.66
2022-08-30T08:14:51.676Z,24.69
2022-08-30T08:15:51.720Z,24.78
2022-08-30T08:16:51.658Z,24.55
2022-08-30T08:17:51.638Z,24.39
2022-08-30T08:18:51.675Z,24.78
2022-08-30T08:19:51.617Z,24.69
2022-08-30T08:20:51.729Z,24.55
2022-08-30T08:22:15.353Z,24.51
2022-08-30T08:22:52.588Z,25.51
2022-08-30T08:23:51.619Z,26.34
2022-08-30T08:24:51.582Z,26.90
2022-08-30T08:25:51.557Z,27.73
2022-08-30T08:26:51.549Z,27.78
2022-08-30T08:27:51.532Z,27.49
2022-08-30T08:28:51.521Z,27.29
2022-08-30T08:29:51.530Z,26.88
2022-08-30T08:30:51.574Z,26.60
2022-08-30T08:31:51.483Z,26.48
2022-08-30T08:32:51.479Z,26.25
2022-08-30T08:33:51.533Z,25.72
2022-08-30T08:34:51.512Z,25.32
2022-08-30T08:35:51.473Z,25.63
2022-08-30T08:36:51.432Z,26.43
2022-08-30T08:37:51.421Z,26.90
2022-08-30T08:38:51.414Z,26.75
2022-08-30T08:39:51.409Z,26.96
2022-08-30T08:40:51.393Z,27.10
2022-08-30T08:41:51.384Z,27.20
2022-08-30T08:42:51.371Z,27.18
2022-08-30T08:43:51.355Z,27.48
2022-08-30T08:44:53.438Z,28.30
2022-08-30T08:45:51.346Z,28.15
2022-08-30T08:46:51.385Z,27.82
2022-08-30T08:47:51.312Z,27.40
2022-08-30T08:48:59.945Z,26.90
2022-08-30T08:49:52.295Z,26.83
2022-08-30T08:50:51.316Z,27.07
2022-08-30T08:51:51.284Z,27.29
2022-08-30T08:52:51.279Z,26.80
2022-08-30T08:53:51.247Z,26.73
2022-08-30T08:54:51.247Z,26.85
2022-08-30T08:55:51.227Z,26.83
2022-08-30T08:56:51.257Z,26.48
2022-08-30T08:57:51.242Z,26.66
2022-08-30T08:58:51.199Z,26.83
2022-08-30T08:59:51.180Z,26.92
2022-08-30T09:00:51.168Z,27.27
2022-08-30T09:01:51.255Z,27.82
2022-08-30T09:02:55.560Z,28.17
2022-08-30T09:03:51.159Z,28.51
2022-08-30T09:04:51.192Z,28.41
2022-08-30T09:05:51.113Z,28.32
2022-08-30T09:06:51.109Z,28.48
2022-08-30T09:07:51.091Z,28.96
2022-08-30T09:08:51.090Z,29.32
2022-08-30T09:09:51.084Z,29.32
2022-08-30T09:10:51.356Z,29.23
2022-08-30T09:11:51.042Z,28.76
2022-08-30T09:12:51.042Z,28.93
2022-08-30T09:13:51.031Z,28.51
2022-08-30T09:14:51.105Z,28.39
2022-08-30T09:15:54.886Z,28.66
2022-08-30T09:16:51.013Z,28.69
2022-08-30T09:17:50.989Z,28.85
2022-08-30T09:18:54.716Z,28.70
2022-08-30T09:19:50.961Z,28.72
2022-08-30T09:20:50.974Z,29.07
2022-08-30T09:21:52.956Z,29.51
2022-08-30T09:22:50.938Z,29.72
2022-08-30T09:23:50.917Z,30.13
2022-08-30T09:24:50.905Z,30.53
2022-08-30T09:25:50.897Z,30.91
2022-08-30T09:26:50.907Z,30.40
2022-08-30T09:27:50.882Z,30.00
2022-08-30T09:28:50.868Z,29.68
2022-08-30T09:29:50.847Z,29.60
2022-08-30T09:30:50.885Z,29.42
2022-08-30T09:31:52.886Z,29.41
2022-08-30T09:32:51.838Z,29.31
2022-08-30T09:33:50.812Z,28.78
2022-08-30T09:34:50.838Z,28.25
2022-08-30T09:35:50.789Z,28.15
2022-08-30T09:36:50.793Z,28.44
2022-08-30T09:37:50.790Z,28.79
2022-08-30T09:38:50.762Z,28.96
2022-08-30T09:39:50.749Z,28.39
2022-08-30T09:40:50.746Z,28.04
2022-08-30T09:41:50.721Z,27.92
2022-08-30T09:42:50.710Z,27.82
2022-08-30T09:43:50.728Z,27.65
2022-08-30T09:44:50.691Z,27.71
2022-08-30T09:45:50.695Z,27.85
2022-08-30T09:46:50.779Z,27.92
2022-08-30T09:47:50.662Z,28.08
2022-08-30T09:48:50.660Z,28.29
2022-08-30T09:49:50.673Z,28.39
2022-08-30T09:50:50.633Z,28.39
2022-08-30T09:51:51.621Z,28.45
2022-08-30T09:52:55.099Z,28.54
2022-08-30T09:54:51.603Z,27.96
2022-08-30T09:55:50.564Z,27.52
2022-08-30T09:56:50.561Z,27.25
2022-08-30T09:57:50.544Z,27.21
2022-08-30T09:58:50.535Z,27.30
2022-08-30T09:59:50.556Z,27.32
2022-08-30T10:00:50.962Z,27.30
2022-08-30T10:01:50.504Z,27.37
2022-08-30T10:02:50.497Z,27.58
2022-08-30T10:03:50.476Z,27.74
2022-08-30T10:04:50.467Z,27.60
2022-08-30T10:05:50.476Z,27.27
2022-08-30T10:06:50.447Z,27.08
2022-08-30T10:07:50.437Z,26.90
2022-08-30T10:08:50.427Z,26.59
2022-08-30T10:09:50.416Z,26.48
2022-08-30T10:10:50.408Z,26.65
2022-08-30T10:11:50.419Z,26.60
2022-08-30T10:12:50.386Z,26.45
2022-08-30T10:13:50.376Z,26.51
2022-08-30T10:14:50.359Z,26.70
2022-08-30T10:15:50.354Z,26.85
2022-08-30T10:16:50.341Z,26.84
2022-08-30T10:17:50.340Z,26.90
2022-08-30T10:18:50.319Z,26.90
2022-08-30T10:19:50.308Z,26.85
2022-08-30T10:20:50.289Z,26.85
2022-08-30T10:21:50.280Z,26.83
2022-08-30T10:22:50.376Z,26.77
2022-08-30T10:23:50.258Z,26.83
2022-08-30T10:24:50.251Z,26.97
2022-08-30T10:25:50.234Z,26.99
2022-08-30T10:26:50.246Z,27.07
2022-08-30T10:27:50.212Z,27.05
2022-08-30T10:28:50.420Z,27.03
2022-08-30T10:29:50.196Z,27.05
2022-08-30T10:30:50.183Z,27.10
2022-08-30T10:31:50.163Z,27.14
2022-08-30T10:32:50.277Z,27.40
2022-08-30T10:33:50.145Z,27.64
2022-08-30T10:34:50.155Z,27.77
2022-08-30T10:35:50.125Z,27.78
2022-08-30T10:36:50.113Z,27.73
2022-08-30T10:37:50.104Z,27.60
2022-08-30T10:38:50.093Z,27.54
2022-08-30T10:39:50.103Z,27.58
2022-08-30T10:40:50.073Z,27.65
2022-08-30T10:41:50.058Z,27.67
2022-08-30T10:42:50.045Z,27.59
2022-08-30T10:43:50.956Z,27.47
2022-08-30T10:44:50.035Z,27.26
2022-08-30T10:45:50.034Z,27.20
2022-08-30T10:46:50.008Z,27.12
2022-08-30T10:47:50.304Z,27.12
2022-08-30T10:48:49.985Z,26.97
2022-08-30T10:49:49.967Z,26.96
2022-08-30T10:50:49.976Z,27.08
2022-08-30T10:51:49.946Z,27.17
2022-08-30T10:52:49.944Z,27.30
2022-08-30T10:53:49.918Z,27.42
2022-08-30T10:54:49.916Z,27.42
2022-08-30T10:55:50.252Z,27.37
2022-08-30T10:56:49.930Z,27.22
2022-08-30T10:57:49.879Z,27.25
2022-08-30T10:58:49.868Z,27.14
2022-08-30T10:59:50.164Z,27.08
2022-08-30T11:00:49.882Z,27.18
2022-08-30T11:01:49.884Z,27.26
2022-08-30T11:02:49.858Z,27.36
2022-08-30T11:03:49.809Z,27.42
2022-08-30T11:04:49.800Z,27.47
2022-08-30T11:05:49.799Z,27.49
2022-08-30T11:06:51.907Z,27.59
2022-08-30T11:07:52.229Z,27.67
2022-08-30T11:08:49.752Z,27.77
2022-08-30T11:09:49.769Z,27.89
2022-08-30T11:10:50.076Z,27.90
2022-08-30T11:11:49.721Z,27.96
2022-08-30T11:12:49.713Z,27.96
2022-08-30T11:13:50.996Z,28.01
2022-08-30T11:14:49.683Z,28.02
2022-08-30T11:15:49.681Z,28.10
2022-08-30T11:16:49.663Z,27.98
2022-08-30T11:17:49.657Z,27.86
2022-08-30T11:18:51.021Z,27.86
2022-08-30T11:19:49.651Z,27.92
2022-08-30T11:20:49.614Z,28.04
2022-08-30T11:21:49.621Z,28.17
2022-08-30T11:22:49.595Z,28.19
2022-08-30T11:23:49.594Z,28.11
2022-08-30T11:24:49.595Z,28.26
2022-08-30T11:25:53.302Z,28.33
2022-08-30T11:26:50.556Z,28.42
2022-08-30T11:27:49.557Z,28.42
2022-08-30T11:28:49.525Z,28.37
2022-08-30T11:29:49.524Z,28.27
2022-08-30T11:30:49.570Z,28.23
2022-08-30T11:31:49.506Z,28.19
2022-08-30T11:32:49.486Z,28.07
2022-08-30T11:33:49.477Z,27.98
2022-08-30T11:34:49.551Z,27.89
2022-08-30T11:35:49.457Z,28.07
2022-08-30T11:36:49.458Z,28.29
2022-08-30T11:37:49.437Z,28.39
2022-08-30T11:38:56.468Z,28.22
2022-08-30T11:39:49.416Z,28.10
2022-08-30T11:40:49.405Z,28.04
2022-08-30T11:41:51.061Z,28.08
2022-08-30T11:42:49.498Z,28.05
2022-08-30T11:43:49.378Z,28.10
2022-08-30T11:44:49.379Z,28.14
2022-08-30T11:45:49.388Z,28.10
2022-08-30T11:46:49.575Z,28.08
2022-08-30T11:47:49.349Z,28.11
2022-08-30T11:48:54.337Z,28.10
2022-08-30T11:49:50.361Z,28.17
2022-08-30T11:50:49.288Z,28.26
2022-08-30T11:52:08.247Z,28.48
2022-08-30T11:52:50.291Z,28.64
2022-08-30T11:53:49.261Z,28.82
2022-08-30T11:54:52.872Z,28.91
2022-08-30T11:55:49.613Z,28.88
2022-08-30T11:56:49.222Z,28.89
2022-08-30T11:57:49.891Z,28.91
2022-08-30T11:58:49.230Z,28.98
2022-08-30T11:59:49.192Z,29.01
2022-08-30T12:00:52.926Z,28.79
2022-08-30T12:01:51.843Z,28.69
2022-08-30T12:02:49.245Z,28.66
2022-08-30T12:03:49.145Z,28.66
2022-08-30T12:04:49.442Z,28.69
2022-08-30T12:05:49.134Z,28.69
2022-08-30T12:06:49.111Z,28.76
2022-08-30T12:07:49.104Z,28.75
2022-08-30T12:08:49.097Z,28.72
2022-08-30T12:09:49.084Z,28.76
2022-08-30T12:10:49.089Z,28.75
2022-08-30T12:11:49.065Z,28.62
2022-08-30T12:12:49.045Z,28.59
2022-08-30T12:13:49.036Z,28.63
2022-08-30T12:14:49.175Z,28.63
2022-08-30T12:15:49.075Z,28.69
2022-08-30T12:16:49.058Z,28.74
2022-08-30T12:17:49.006Z,28.86
2022-08-30T12:18:48.997Z,28.96
2022-08-30T12:19:50.271Z,28.94
2022-08-30T12:20:48.959Z,28.89
2022-08-30T12:21:48.985Z,28.86
2022-08-30T12:22:48.937Z,28.86
2022-08-30T12:23:48.933Z,28.79
2022-08-30T12:24:48.910Z,28.69
2022-08-30T12:25:48.914Z,28.67
2022-08-30T12:26:49.441Z,28.67
2022-08-30T12:27:48.909Z,28.79
2022-08-30T12:28:48.871Z,28.89
2022-08-30T12:29:48.865Z,28.91
2022-08-30T12:30:48.849Z,28.85
2022-08-30T12:31:48.959Z,28.85
2022-08-30T12:32:50.736Z,28.84
2022-08-30T12:33:48.913Z,28.82
2022-08-30T12:34:48.809Z,28.75
2022-08-30T12:35:48.841Z,28.76
2022-08-30T12:36:48.795Z,28.84
2022-08-30T12:37:48.788Z,28.88
2022-08-30T12:38:48.881Z,28.96
2022-08-30T12:39:52.711Z,28.88
2022-08-30T12:40:49.813Z,28.84
2022-08-30T12:41:48.733Z,28.97
2022-08-30T12:42:48.717Z,29.20
2022-08-30T12:43:48.712Z,29.42
2022-08-30T12:44:48.750Z,29.65
2022-08-30T12:45:50.572Z,29.72
2022-08-30T12:46:48.718Z,29.59
2022-08-30T12:47:48.664Z,29.56
2022-08-30T12:48:48.653Z,29.59
2022-08-30T12:49:48.642Z,29.69
2022-08-30T12:50:48.644Z,29.66
2022-08-30T12:51:48.624Z,29.56
2022-08-30T12:52:48.605Z,29.56
2022-08-30T12:53:51.243Z,29.54